Backi Monostor — YT2181 — position and weather

sailwx.info

Track history (hours):
 
Tides and Currents Weather Stations Pressure Air Temp Water Temp Dewpoint Dewpoint Depression Visibility Wind Speed Wind Dir Waves Ship Positions

Backi Monostor

Last reported at 2018-Jan-19 07:25 UTC. Time now 2018-Jan-19 21:35 UTC.
Position N 44°47' E 021°15'.

Length 70 m; draft 2.2 m.

Type: Cargo ship. MMSI: 279202181.

Date/timePositionNaut miles runAvg speedWind from/ knotsBaromVisibWave heightAir tempDewpointWater temp
2018-Jan-19 07:25N 44°47' E 021°15'2 5.1
2018-Jan-19 06:57N 44°46' E 021°12'  
2018-Jan-12 15:00N 44°45' E 021°10'1 0.0
2018-Jan-11 15:43N 44°44' E 021°09'0 0.0
2018-Jan-11 15:31N 44°44' E 021°09'0 0.0
2018-Jan-11 15:00N 44°44' E 021°09'1 1.2
2018-Jan-11 14:31N 44°45' E 021°10'1 1.7
2018-Jan-11 14:01N 44°45' E 021°10'0 0.0
2018-Jan-11 13:31N 44°45' E 021°10'0 0.0
2018-Jan-11 13:01N 44°45' E 021°10'0 0.0
2018-Jan-11 12:25N 44°45' E 021°10'1 2.4
2018-Jan-11 12:00N 44°45' E 021°10'1 2.3
2018-Jan-11 11:30N 44°43' E 021°10'0 0.0
2018-Jan-11 11:00N 44°43' E 021°10'0 0.0
2018-Jan-11 10:11N 44°43' E 021°10'0 0.0
2018-Jan-11 09:59N 44°43' E 021°10'0 0.0
2018-Jan-11 09:30N 44°43' E 021°10'1 0.1
2018-Jan-11 00:19N 44°44' E 021°09'0 0.0
2018-Jan-11 00:00N 44°44' E 021°09'0 0.0
2018-Jan-10 23:30N 44°44' E 021°09'0 0.0
2018-Jan-10 23:00N 44°44' E 021°09'0 0.0
2018-Jan-10 22:30N 44°44' E 021°09'0 0.0
2018-Jan-10 22:00N 44°44' E 021°09'0 0.0
2018-Jan-10 21:30N 44°44' E 021°09'0 0.0
2018-Jan-10 21:00N 44°44' E 021°09'0 0.0
2018-Jan-10 20:30N 44°44' E 021°09'0 0.0
2018-Jan-10 20:00N 44°44' E 021°09'0 0.0
2018-Jan-10 19:30N 44°44' E 021°09'0 0.0
2018-Jan-10 18:59N 44°44' E 021°09'0 0.0
2018-Jan-10 18:29N 44°44' E 021°09'0 0.0
2018-Jan-10 18:00N 44°44' E 021°09'0 0.0
2018-Jan-10 17:30N 44°44' E 021°09'0 0.0
2018-Jan-10 17:00N 44°44' E 021°09'0 0.0
2018-Jan-10 16:30N 44°44' E 021°09'0 0.0
2018-Jan-10 16:01N 44°44' E 021°09'0 0.0
2018-Jan-10 15:30N 44°44' E 021°09'0 0.0
2018-Jan-10 15:00N 44°44' E 021°09'1 2.4
2018-Jan-10 14:30N 44°45' E 021°10'0 0.6
2018-Jan-10 14:00N 44°45' E 021°10'0 0.0
2018-Jan-10 13:31N 44°45' E 021°10'0 0.0
2018-Jan-10 13:00N 44°45' E 021°10'0 0.5
2018-Jan-10 12:30N 44°46' E 021°11'2 3.4
2018-Jan-10 12:01N 44°44' E 021°09'0 0.0
2018-Jan-10 11:30N 44°44' E 021°09'0 0.0
2018-Jan-10 11:00N 44°44' E 021°09'0 0.0
2018-Jan-10 10:30N 44°44' E 021°09'0 0.0
2018-Jan-10 10:01N 44°44' E 021°09'1 0.1
2018-Jan-09 23:25N 44°43' E 021°10'0 0.0
2018-Jan-09 22:58N 44°43' E 021°10'0 0.0
2018-Jan-09 22:27N 44°43' E 021°10'0 0.0
2018-Jan-09 21:57N 44°43' E 021°10'0 0.0
2018-Jan-09 20:42N 44°43' E 021°10'0 0.0
2018-Jan-09 20:19N 44°43' E 021°10'0 0.0
2018-Jan-09 19:49N 44°43' E 021°10'0 0.0
2018-Jan-09 19:06N 44°43' E 021°10'0 0.0
2018-Jan-09 18:59N 44°43' E 021°10'0 0.0
2018-Jan-09 17:08N 44°43' E 021°10'0 0.0
2018-Jan-09 16:59N 44°43' E 021°10'0 0.0
2018-Jan-09 16:18N 44°43' E 021°10'0 0.0
2018-Jan-09 15:51N 44°43' E 021°10'0 0.0
2018-Jan-09 15:30N 44°43' E 021°10'0 0.0
2018-Jan-09 14:59N 44°43' E 021°10'0 0.2
2018-Jan-09 14:29N 44°44' E 021°10'0 0.0
2018-Jan-09 13:42N 44°44' E 021°10'0 0.0
2018-Jan-09 13:29N 44°44' E 021°10'0 0.0
2018-Jan-09 12:51N 44°44' E 021°10'0 0.5
2018-Jan-09 12:29N 44°44' E 021°10'1 1.3
2018-Jan-09 12:00N 44°44' E 021°09'0 0.0
2018-Jan-09 11:29N 44°44' E 021°09'0 0.0
2018-Jan-09 11:00N 44°44' E 021°09'  
Track history (hours):
 
Tides and Currents Weather Stations Pressure Air Temp Water Temp Dewpoint Dewpoint Depression Visibility Wind Speed Wind Dir Waves Ship Positions

Backi Monostor

Last reported at 2018-Jan-19 07:25 UTC. Time now 2018-Jan-19 21:35 UTC.
Position N 44°47' E 021°15'.

Length 70 m; draft 2.2 m.

Type: Cargo ship. MMSI: 279202181.

Date/timePositionNaut miles runAvg speedWind from/ knotsBaromVisibWave heightAir tempDewpointWater temp
2018-Jan-19 07:25N 44°47' E 021°15'2 5.1
2018-Jan-19 06:57N 44°46' E 021°12'  
2018-Jan-12 15:00N 44°45' E 021°10'1 0.0
2018-Jan-11 15:43N 44°44' E 021°09'0 0.0
2018-Jan-11 15:31N 44°44' E 021°09'0 0.0
2018-Jan-11 15:00N 44°44' E 021°09'1 1.2
2018-Jan-11 14:31N 44°45' E 021°10'1 1.7
2018-Jan-11 14:01N 44°45' E 021°10'0 0.0
2018-Jan-11 13:31N 44°45' E 021°10'0 0.0
2018-Jan-11 13:01N 44°45' E 021°10'0 0.0
2018-Jan-11 12:25N 44°45' E 021°10'1 2.4
2018-Jan-11 12:00N 44°45' E 021°10'1 2.3
2018-Jan-11 11:30N 44°43' E 021°10'0 0.0
2018-Jan-11 11:00N 44°43' E 021°10'0 0.0
2018-Jan-11 10:11N 44°43' E 021°10'0 0.0
2018-Jan-11 09:59N 44°43' E 021°10'0 0.0
2018-Jan-11 09:30N 44°43' E 021°10'1 0.1
2018-Jan-11 00:19N 44°44' E 021°09'0 0.0
2018-Jan-11 00:00N 44°44' E 021°09'0 0.0
2018-Jan-10 23:30N 44°44' E 021°09'0 0.0
2018-Jan-10 23:00N 44°44' E 021°09'0 0.0
2018-Jan-10 22:30N 44°44' E 021°09'0 0.0
2018-Jan-10 22:00N 44°44' E 021°09'0 0.0
2018-Jan-10 21:30N 44°44' E 021°09'0 0.0
2018-Jan-10 21:00N 44°44' E 021°09'0 0.0
2018-Jan-10 20:30N 44°44' E 021°09'0 0.0
2018-Jan-10 20:00N 44°44' E 021°09'0 0.0
2018-Jan-10 19:30N 44°44' E 021°09'0 0.0
2018-Jan-10 18:59N 44°44' E 021°09'0 0.0
2018-Jan-10 18:29N 44°44' E 021°09'0 0.0
2018-Jan-10 18:00N 44°44' E 021°09'0 0.0
2018-Jan-10 17:30N 44°44' E 021°09'0 0.0
2018-Jan-10 17:00N 44°44' E 021°09'0 0.0
2018-Jan-10 16:30N 44°44' E 021°09'0 0.0
2018-Jan-10 16:01N 44°44' E 021°09'0 0.0
2018-Jan-10 15:30N 44°44' E 021°09'0 0.0
2018-Jan-10 15:00N 44°44' E 021°09'1 2.4
2018-Jan-10 14:30N 44°45' E 021°10'0 0.6
2018-Jan-10 14:00N 44°45' E 021°10'0 0.0
2018-Jan-10 13:31N 44°45' E 021°10'0 0.0
2018-Jan-10 13:00N 44°45' E 021°10'0 0.5
2018-Jan-10 12:30N 44°46' E 021°11'2 3.4
2018-Jan-10 12:01N 44°44' E 021°09'0 0.0
2018-Jan-10 11:30N 44°44' E 021°09'0 0.0
2018-Jan-10 11:00N 44°44' E 021°09'0 0.0
2018-Jan-10 10:30N 44°44' E 021°09'0 0.0
2018-Jan-10 10:01N 44°44' E 021°09'1 0.1
2018-Jan-09 23:25N 44°43' E 021°10'0 0.0
2018-Jan-09 22:58N 44°43' E 021°10'0 0.0
2018-Jan-09 22:27N 44°43' E 021°10'0 0.0
2018-Jan-09 21:57N 44°43' E 021°10'0 0.0
2018-Jan-09 20:42N 44°43' E 021°10'0 0.0
2018-Jan-09 20:19N 44°43' E 021°10'0 0.0
2018-Jan-09 19:49N 44°43' E 021°10'0 0.0
2018-Jan-09 19:06N 44°43' E 021°10'0 0.0
2018-Jan-09 18:59N 44°43' E 021°10'0 0.0
2018-Jan-09 17:08N 44°43' E 021°10'0 0.0
2018-Jan-09 16:59N 44°43' E 021°10'0 0.0
2018-Jan-09 16:18N 44°43' E 021°10'0 0.0
2018-Jan-09 15:51N 44°43' E 021°10'0 0.0
2018-Jan-09 15:30N 44°43' E 021°10'0 0.0
2018-Jan-09 14:59N 44°43' E 021°10'0 0.2
2018-Jan-09 14:29N 44°44' E 021°10'0 0.0
2018-Jan-09 13:42N 44°44' E 021°10'0 0.0
2018-Jan-09 13:29N 44°44' E 021°10'0 0.0
2018-Jan-09 12:51N 44°44' E 021°10'0 0.5
2018-Jan-09 12:29N 44°44' E 021°10'1 1.3
2018-Jan-09 12:00N 44°44' E 021°09'0 0.0
2018-Jan-09 11:29N 44°44' E 021°09'0 0.0
2018-Jan-09 11:00N 44°44' E 021°09'  

Dump ship's entire track history